sensor_id;sensor_type;location;lat;lon;timestamp;P1;durP1;ratioP1;P2;durP2;ratioP2
25952;SDS011;13750;50.804;8.764;2022-08-03T00:01:31;1.80;;;1.70;;
25952;SDS011;13750;50.804;8.764;2022-08-03T00:03:57;2.42;;;1.95;;
25952;SDS011;13750;50.804;8.764;2022-08-03T00:06:23;1.85;;;1.60;;
25952;SDS011;13750;50.804;8.764;2022-08-03T00:08:49;1.77;;;1.67;;
25952;SDS011;13750;50.804;8.764;2022-08-03T00:11:15;1.67;;;1.57;;
25952;SDS011;13750;50.804;8.764;2022-08-03T00:13:40;1.40;;;1.30;;
25952;SDS011;13750;50.804;8.764;2022-08-03T00:16:06;1.50;;;1.40;;
25952;SDS011;13750;50.804;8.764;2022-08-03T00:18:32;1.45;;;1.35;;
25952;SDS011;13750;50.804;8.764;2022-08-03T00:21:00;1.50;;;1.40;;
25952;SDS011;13750;50.804;8.764;2022-08-03T00:23:26;2.05;;;1.40;;
25952;SDS011;13750;50.804;8.764;2022-08-03T00:25:52;1.60;;;1.50;;
25952;SDS011;13750;50.804;8.764;2022-08-03T00:28:17;1.60;;;1.50;;
25952;SDS011;13750;50.804;8.764;2022-08-03T00:30:43;1.60;;;1.50;;
25952;SDS011;13750;50.804;8.764;2022-08-03T00:33:09;1.80;;;1.50;;
25952;SDS011;13750;50.804;8.764;2022-08-03T00:35:34;2.13;;;1.93;;
25952;SDS011;13750;50.804;8.764;2022-08-03T00:38:00;1.70;;;1.50;;
25952;SDS011;13750;50.804;8.764;2022-08-03T00:40:26;1.67;;;1.57;;
25952;SDS011;13750;50.804;8.764;2022-08-03T00:42:54;1.48;;;1.38;;
25952;SDS011;13750;50.804;8.764;2022-08-03T00:45:22;2.00;;;1.63;;
25952;SDS011;13750;50.804;8.764;2022-08-03T00:47:50;1.55;;;1.45;;
25952;SDS011;13750;50.804;8.764;2022-08-03T00:50:16;1.40;;;1.30;;
25952;SDS011;13750;50.804;8.764;2022-08-03T00:52:43;2.05;;;1.85;;
25952;SDS011;13750;50.804;8.764;2022-08-03T00:55:10;2.17;;;2.00;;
25952;SDS011;13750;50.804;8.764;2022-08-03T01:00:04;2.30;;;2.10;;
25952;SDS011;13750;50.804;8.764;2022-08-03T01:02:31;1.92;;;1.73;;
25952;SDS011;13750;50.804;8.764;2022-08-03T01:04:57;2.00;;;1.90;;
25952;SDS011;13750;50.804;8.764;2022-08-03T01:07:29;2.07;;;1.80;;
25952;SDS011;13750;50.804;8.764;2022-08-03T01:15:50;1.77;;;1.40;;
25952;SDS011;13750;50.804;8.764;2022-08-03T01:18:31;1.63;;;1.52;;
25952;SDS011;13750;50.804;8.764;2022-08-03T01:21:20;2.17;;;1.95;;
25952;SDS011;13750;50.804;8.764;2022-08-03T01:24:01;1.50;;;1.40;;
25952;SDS011;13750;50.804;8.764;2022-08-03T01:32:10;1.60;;;1.50;;
25952;SDS011;13750;50.804;8.764;2022-08-03T01:34:58;1.65;;;1.50;;
25952;SDS011;13750;50.804;8.764;2022-08-03T01:37:46;1.80;;;1.70;;
25952;SDS011;13750;50.804;8.764;2022-08-03T01:40:15;1.75;;;1.60;;
25952;SDS011;13750;50.804;8.764;2022-08-03T01:42:43;1.90;;;1.75;;
25952;SDS011;13750;50.804;8.764;2022-08-03T01:45:11;2.03;;;1.83;;
25952;SDS011;13750;50.804;8.764;2022-08-03T01:47:38;1.80;;;1.70;;
25952;SDS011;13750;50.804;8.764;2022-08-03T01:50:05;2.13;;;1.80;;
25952;SDS011;13750;50.804;8.764;2022-08-03T01:52:33;1.67;;;1.58;;
25952;SDS011;13750;50.804;8.764;2022-08-03T01:55:02;1.80;;;1.70;;
25952;SDS011;13750;50.804;8.764;2022-08-03T01:57:29;1.83;;;1.73;;
25952;SDS011;13750;50.804;8.764;2022-08-03T01:59:55;1.43;;;1.33;;
25952;SDS011;13750;50.804;8.764;2022-08-03T02:02:24;1.65;;;1.55;;
25952;SDS011;13750;50.804;8.764;2022-08-03T02:04:51;1.63;;;1.52;;
25952;SDS011;13750;50.804;8.764;2022-08-03T02:07:20;1.80;;;1.70;;
25952;SDS011;13750;50.804;8.764;2022-08-03T02:09:48;2.25;;;2.05;;
25952;SDS011;13750;50.804;8.764;2022-08-03T02:12:16;1.98;;;1.80;;
25952;SDS011;13750;50.804;8.764;2022-08-03T02:14:44;1.90;;;1.70;;
25952;SDS011;13750;50.804;8.764;2022-08-03T02:17:12;2.13;;;1.42;;
25952;SDS011;13750;50.804;8.764;2022-08-03T02:22:07;2.30;;;1.60;;
25952;SDS011;13750;50.804;8.764;2022-08-03T02:24:35;3.65;;;1.67;;
25952;SDS011;13750;50.804;8.764;2022-08-03T02:27:01;2.58;;;1.45;;
25952;SDS011;13750;50.804;8.764;2022-08-03T02:29:32;1.63;;;1.52;;
25952;SDS011;13750;50.804;8.764;2022-08-03T02:32:00;1.60;;;1.50;;
25952;SDS011;13750;50.804;8.764;2022-08-03T02:34:28;1.90;;;1.80;;
25952;SDS011;13750;50.804;8.764;2022-08-03T02:36:57;2.08;;;1.80;;
25952;SDS011;13750;50.804;8.764;2022-08-03T02:39:24;2.35;;;2.15;;
25952;SDS011;13750;50.804;8.764;2022-08-03T02:41:53;2.03;;;1.88;;
25952;SDS011;13750;50.804;8.764;2022-08-03T02:44:26;1.70;;;1.60;;
25952;SDS011;13750;50.804;8.764;2022-08-03T02:46:58;1.95;;;1.85;;
25952;SDS011;13750;50.804;8.764;2022-08-03T02:49:27;1.70;;;1.60;;
25952;SDS011;13750;50.804;8.764;2022-08-03T02:51:55;1.75;;;1.65;;
25952;SDS011;13750;50.804;8.764;2022-08-03T02:54:23;1.98;;;1.77;;
25952;SDS011;13750;50.804;8.764;2022-08-03T02:56:52;2.10;;;1.90;;
25952;SDS011;13750;50.804;8.764;2022-08-03T02:59:18;1.70;;;1.60;;
25952;SDS011;13750;50.804;8.764;2022-08-03T03:01:45;1.95;;;1.83;;
25952;SDS011;13750;50.804;8.764;2022-08-03T03:04:11;1.88;;;1.67;;
25952;SDS011;13750;50.804;8.764;2022-08-03T03:06:38;1.77;;;1.67;;
25952;SDS011;13750;50.804;8.764;2022-08-03T03:09:04;1.40;;;1.30;;
25952;SDS011;13750;50.804;8.764;2022-08-03T03:11:31;1.80;;;1.70;;
25952;SDS011;13750;50.804;8.764;2022-08-03T03:14:00;1.67;;;1.52;;
25952;SDS011;13750;50.804;8.764;2022-08-03T03:16:26;2.22;;;2.03;;
25952;SDS011;13750;50.804;8.764;2022-08-03T03:18:54;3.05;;;2.08;;
25952;SDS011;13750;50.804;8.764;2022-08-03T03:21:21;1.92;;;1.83;;
25952;SDS011;13750;50.804;8.764;2022-08-03T03:23:49;2.28;;;2.08;;
25952;SDS011;13750;50.804;8.764;2022-08-03T03:26:15;2.58;;;2.00;;
25952;SDS011;13750;50.804;8.764;2022-08-03T03:28:41;2.80;;;2.60;;
25952;SDS011;13750;50.804;8.764;2022-08-03T03:31:08;2.42;;;2.20;;
25952;SDS011;13750;50.804;8.764;2022-08-03T03:33:34;2.08;;;1.92;;
25952;SDS011;13750;50.804;8.764;2022-08-03T03:36:01;2.30;;;2.10;;
25952;SDS011;13750;50.804;8.764;2022-08-03T03:38:28;2.30;;;2.10;;
25952;SDS011;13750;50.804;8.764;2022-08-03T03:40:55;1.90;;;1.70;;
25952;SDS011;13750;50.804;8.764;2022-08-03T03:43:21;1.63;;;1.53;;
25952;SDS011;13750;50.804;8.764;2022-08-03T03:45:48;1.85;;;1.75;;
25952;SDS011;13750;50.804;8.764;2022-08-03T03:48:15;2.22;;;2.03;;
25952;SDS011;13750;50.804;8.764;2022-08-03T03:50:42;2.05;;;1.70;;
25952;SDS011;13750;50.804;8.764;2022-08-03T03:53:09;1.88;;;1.77;;
25952;SDS011;13750;50.804;8.764;2022-08-03T03:55:36;2.60;;;2.40;;
25952;SDS011;13750;50.804;8.764;2022-08-03T04:00:28;2.90;;;2.60;;
25952;SDS011;13750;50.804;8.764;2022-08-03T04:02:54;2.00;;;1.90;;
25952;SDS011;13750;50.804;8.764;2022-08-03T04:05:20;2.28;;;2.08;;
25952;SDS011;13750;50.804;8.764;2022-08-03T04:08:05;2.55;;;2.35;;
25952;SDS011;13750;50.804;8.764;2022-08-03T04:11:11;1.95;;;1.85;;
25952;SDS011;13750;50.804;8.764;2022-08-03T04:13:48;2.75;;;2.35;;
25952;SDS011;13750;50.804;8.764;2022-08-03T04:16:17;2.63;;;2.42;;
25952;SDS011;13750;50.804;8.764;2022-08-03T04:18:46;1.92;;;1.83;;
25952;SDS011;13750;50.804;8.764;2022-08-03T04:21:17;1.77;;;1.67;;
25952;SDS011;13750;50.804;8.764;2022-08-03T04:23:45;1.80;;;1.70;;
25952;SDS011;13750;50.804;8.764;2022-08-03T04:26:15;1.50;;;1.40;;
25952;SDS011;13750;50.804;8.764;2022-08-03T04:28:44;1.90;;;1.80;;
25952;SDS011;13750;50.804;8.764;2022-08-03T04:31:12;2.47;;;2.28;;
25952;SDS011;13750;50.804;8.764;2022-08-03T04:33:39;8.43;;;7.38;;
25952;SDS011;13750;50.804;8.764;2022-08-03T04:36:08;7.05;;;6.35;;
25952;SDS011;13750;50.804;8.764;2022-08-03T04:38:39;5.78;;;5.18;;
25952;SDS011;13750;50.804;8.764;2022-08-03T04:41:12;4.47;;;3.90;;
25952;SDS011;13750;50.804;8.764;2022-08-03T04:43:38;3.70;;;3.33;;
25952;SDS011;13750;50.804;8.764;2022-08-03T04:48:31;2.85;;;2.65;;
25952;SDS011;13750;50.804;8.764;2022-08-03T04:50:58;3.05;;;2.72;;
25952;SDS011;13750;50.804;8.764;2022-08-03T04:53:25;2.78;;;2.55;;
25952;SDS011;13750;50.804;8.764;2022-08-03T04:55:51;3.10;;;2.90;;
25952;SDS011;13750;50.804;8.764;2022-08-03T04:58:17;2.80;;;2.57;;
25952;SDS011;13750;50.804;8.764;2022-08-03T05:00:42;2.37;;;2.20;;
25952;SDS011;13750;50.804;8.764;2022-08-03T05:03:09;2.67;;;2.47;;
25952;SDS011;13750;50.804;8.764;2022-08-03T05:05:35;2.50;;;2.30;;
25952;SDS011;13750;50.804;8.764;2022-08-03T05:08:00;2.40;;;2.20;;
25952;SDS011;13750;50.804;8.764;2022-08-03T05:10:26;2.67;;;2.10;;
25952;SDS011;13750;50.804;8.764;2022-08-03T05:12:52;2.63;;;2.43;;
25952;SDS011;13750;50.804;8.764;2022-08-03T05:15:17;2.17;;;1.97;;
25952;SDS011;13750;50.804;8.764;2022-08-03T05:17:43;2.40;;;2.20;;
25952;SDS011;13750;50.804;8.764;2022-08-03T05:20:09;3.47;;;2.40;;
25952;SDS011;13750;50.804;8.764;2022-08-03T05:22:35;1.63;;;1.52;;
25952;SDS011;13750;50.804;8.764;2022-08-03T05:25:01;2.17;;;1.87;;
25952;SDS011;13750;50.804;8.764;2022-08-03T05:27:27;1.90;;;1.80;;
25952;SDS011;13750;50.804;8.764;2022-08-03T05:29:52;2.33;;;1.80;;
25952;SDS011;13750;50.804;8.764;2022-08-03T05:32:18;2.40;;;2.20;;
25952;SDS011;13750;50.804;8.764;2022-08-03T05:34:44;1.93;;;1.83;;
25952;SDS011;13750;50.804;8.764;2022-08-03T05:37:09;2.00;;;1.90;;
25952;SDS011;13750;50.804;8.764;2022-08-03T05:39:35;2.00;;;1.90;;
25952;SDS011;13750;50.804;8.764;2022-08-03T05:42:01;1.57;;;1.47;;
25952;SDS011;13750;50.804;8.764;2022-08-03T05:44:26;1.80;;;1.67;;
25952;SDS011;13750;50.804;8.764;2022-08-03T05:46:52;1.50;;;1.40;;
25952;SDS011;13750;50.804;8.764;2022-08-03T05:49:18;1.50;;;1.40;;
25952;SDS011;13750;50.804;8.764;2022-08-03T05:51:44;1.40;;;1.30;;
25952;SDS011;13750;50.804;8.764;2022-08-03T05:54:10;1.70;;;1.60;;
25952;SDS011;13750;50.804;8.764;2022-08-03T05:56:36;2.25;;;1.90;;
25952;SDS011;13750;50.804;8.764;2022-08-03T05:59:01;1.60;;;1.40;;
25952;SDS011;13750;50.804;8.764;2022-08-03T06:01:27;1.75;;;1.60;;
25952;SDS011;13750;50.804;8.764;2022-08-03T06:03:53;2.17;;;1.98;;
25952;SDS011;13750;50.804;8.764;2022-08-03T06:06:19;2.70;;;2.50;;
25952;SDS011;13750;50.804;8.764;2022-08-03T06:08:45;3.20;;;2.23;;
25952;SDS011;13750;50.804;8.764;2022-08-03T06:11:12;2.33;;;2.13;;
25952;SDS011;13750;50.804;8.764;2022-08-03T06:13:38;2.40;;;2.20;;
25952;SDS011;13750;50.804;8.764;2022-08-03T06:16:04;2.30;;;2.10;;
25952;SDS011;13750;50.804;8.764;2022-08-03T06:18:30;2.20;;;2.00;;
25952;SDS011;13750;50.804;8.764;2022-08-03T06:20:56;2.20;;;2.00;;
25952;SDS011;13750;50.804;8.764;2022-08-03T06:23:22;1.50;;;1.40;;
25952;SDS011;13750;50.804;8.764;2022-08-03T06:25:47;1.80;;;1.70;;
25952;SDS011;13750;50.804;8.764;2022-08-03T06:28:13;1.83;;;1.73;;
25952;SDS011;13750;50.804;8.764;2022-08-03T06:30:39;1.58;;;1.33;;
25952;SDS011;13750;50.804;8.764;2022-08-03T06:33:05;1.90;;;1.80;;
25952;SDS011;13750;50.804;8.764;2022-08-03T06:35:31;1.57;;;1.47;;
25952;SDS011;13750;50.804;8.764;2022-08-03T06:37:57;1.63;;;1.52;;
25952;SDS011;13750;50.804;8.764;2022-08-03T06:40:23;1.90;;;1.67;;
25952;SDS011;13750;50.804;8.764;2022-08-03T06:42:58;1.77;;;1.67;;
25952;SDS011;13750;50.804;8.764;2022-08-03T06:45:28;2.35;;;1.73;;
25952;SDS011;13750;50.804;8.764;2022-08-03T06:48:00;1.50;;;1.40;;
25952;SDS011;13750;50.804;8.764;2022-08-03T06:50:28;1.50;;;1.40;;
25952;SDS011;13750;50.804;8.764;2022-08-03T06:52:54;1.17;;;1.10;;
25952;SDS011;13750;50.804;8.764;2022-08-03T06:55:20;1.40;;;1.30;;
25952;SDS011;13750;50.804;8.764;2022-08-03T06:57:45;1.00;;;1.00;;
25952;SDS011;13750;50.804;8.764;2022-08-03T07:00:11;1.30;;;1.20;;
25952;SDS011;13750;50.804;8.764;2022-08-03T07:02:38;1.40;;;1.30;;
25952;SDS011;13750;50.804;8.764;2022-08-03T07:05:04;1.30;;;1.20;;
25952;SDS011;13750;50.804;8.764;2022-08-03T07:07:31;1.20;;;1.10;;
25952;SDS011;13750;50.804;8.764;2022-08-03T07:09:56;0.90;;;0.90;;
25952;SDS011;13750;50.804;8.764;2022-08-03T07:12:22;0.97;;;0.93;;
25952;SDS011;13750;50.804;8.764;2022-08-03T07:14:48;0.90;;;0.90;;
25952;SDS011;13750;50.804;8.764;2022-08-03T07:17:13;0.87;;;0.87;;
25952;SDS011;13750;50.804;8.764;2022-08-03T07:19:39;0.90;;;0.87;;
25952;SDS011;13750;50.804;8.764;2022-08-03T07:22:04;0.73;;;0.73;;
25952;SDS011;13750;50.804;8.764;2022-08-03T07:24:30;0.90;;;0.90;;
25952;SDS011;13750;50.804;8.764;2022-08-03T07:26:56;1.10;;;0.90;;
25952;SDS011;13750;50.804;8.764;2022-08-03T07:29:21;0.87;;;0.87;;
25952;SDS011;13750;50.804;8.764;2022-08-03T07:31:47;1.20;;;1.10;;
25952;SDS011;13750;50.804;8.764;2022-08-03T07:34:13;0.90;;;0.90;;
25952;SDS011;13750;50.804;8.764;2022-08-03T07:36:39;0.80;;;0.80;;
25952;SDS011;13750;50.804;8.764;2022-08-03T07:39:04;0.83;;;0.83;;
25952;SDS011;13750;50.804;8.764;2022-08-03T07:41:30;0.80;;;0.80;;
25952;SDS011;13750;50.804;8.764;2022-08-03T07:43:56;0.90;;;0.90;;
25952;SDS011;13750;50.804;8.764;2022-08-03T07:46:21;1.20;;;1.00;;
25952;SDS011;13750;50.804;8.764;2022-08-03T07:48:47;1.00;;;0.90;;
25952;SDS011;13750;50.804;8.764;2022-08-03T07:51:13;0.93;;;0.90;;
25952;SDS011;13750;50.804;8.764;2022-08-03T07:53:38;0.90;;;0.90;;
25952;SDS011;13750;50.804;8.764;2022-08-03T07:56:04;0.80;;;0.77;;
25952;SDS011;13750;50.804;8.764;2022-08-03T07:58:30;0.97;;;0.90;;
25952;SDS011;13750;50.804;8.764;2022-08-03T08:00:56;1.02;;;0.80;;
25952;SDS011;13750;50.804;8.764;2022-08-03T08:03:21;0.70;;;0.70;;
25952;SDS011;13750;50.804;8.764;2022-08-03T08:05:47;0.80;;;0.80;;
25952;SDS011;13750;50.804;8.764;2022-08-03T08:08:13;0.80;;;0.80;;
25952;SDS011;13750;50.804;8.764;2022-08-03T08:10:39;0.80;;;0.80;;
25952;SDS011;13750;50.804;8.764;2022-08-03T08:13:05;0.70;;;0.70;;
25952;SDS011;13750;50.804;8.764;2022-08-03T08:15:30;0.60;;;0.60;;
25952;SDS011;13750;50.804;8.764;2022-08-03T08:17:57;0.80;;;0.80;;
25952;SDS011;13750;50.804;8.764;2022-08-03T08:20:25;0.90;;;0.80;;
25952;SDS011;13750;50.804;8.764;2022-08-03T08:22:54;0.85;;;0.80;;
25952;SDS011;13750;50.804;8.764;2022-08-03T08:25:30;0.95;;;0.80;;
25952;SDS011;13750;50.804;8.764;2022-08-03T08:27:56;0.80;;;0.80;;
25952;SDS011;13750;50.804;8.764;2022-08-03T08:30:25;0.82;;;0.75;;
25952;SDS011;13750;50.804;8.764;2022-08-03T08:32:51;0.87;;;0.70;;
25952;SDS011;13750;50.804;8.764;2022-08-03T08:35:17;0.80;;;0.80;;
25952;SDS011;13750;50.804;8.764;2022-08-03T08:37:42;1.03;;;0.93;;
25952;SDS011;13750;50.804;8.764;2022-08-03T08:40:09;1.23;;;0.88;;
25952;SDS011;13750;50.804;8.764;2022-08-03T08:42:37;0.95;;;0.80;;
25952;SDS011;13750;50.804;8.764;2022-08-03T08:45:03;0.80;;;0.80;;
25952;SDS011;13750;50.804;8.764;2022-08-03T08:47:31;0.80;;;0.80;;
25952;SDS011;13750;50.804;8.764;2022-08-03T08:49:58;0.88;;;0.88;;
25952;SDS011;13750;50.804;8.764;2022-08-03T08:52:28;0.82;;;0.80;;
25952;SDS011;13750;50.804;8.764;2022-08-03T08:54:55;0.90;;;0.90;;
25952;SDS011;13750;50.804;8.764;2022-08-03T08:57:28;0.77;;;0.77;;
25952;SDS011;13750;50.804;8.764;2022-08-03T08:59:55;0.93;;;0.90;;
25952;SDS011;13750;50.804;8.764;2022-08-03T09:02:27;0.88;;;0.88;;
25952;SDS011;13750;50.804;8.764;2022-08-03T09:04:54;0.90;;;0.90;;
25952;SDS011;13750;50.804;8.764;2022-08-03T09:07:21;0.85;;;0.85;;
25952;SDS011;13750;50.804;8.764;2022-08-03T09:09:47;0.80;;;0.80;;
25952;SDS011;13750;50.804;8.764;2022-08-03T09:12:13;1.10;;;1.00;;
25952;SDS011;13750;50.804;8.764;2022-08-03T09:14:39;0.82;;;0.82;;
25952;SDS011;13750;50.804;8.764;2022-08-03T09:17:05;0.80;;;0.80;;
25952;SDS011;13750;50.804;8.764;2022-08-03T09:19:32;0.80;;;0.70;;
25952;SDS011;13750;50.804;8.764;2022-08-03T09:24:52;0.70;;;0.70;;
25952;SDS011;13750;50.804;8.764;2022-08-03T09:27:42;1.57;;;1.07;;
25952;SDS011;13750;50.804;8.764;2022-08-03T09:30:13;0.95;;;0.90;;
25952;SDS011;13750;50.804;8.764;2022-08-03T09:32:40;1.08;;;0.95;;
25952;SDS011;13750;50.804;8.764;2022-08-03T09:35:06;0.90;;;0.90;;
25952;SDS011;13750;50.804;8.764;2022-08-03T09:37:32;1.35;;;1.00;;
25952;SDS011;13750;50.804;8.764;2022-08-03T09:39:58;0.80;;;0.80;;
25952;SDS011;13750;50.804;8.764;2022-08-03T09:42:24;0.83;;;0.80;;
25952;SDS011;13750;50.804;8.764;2022-08-03T09:44:51;0.65;;;0.65;;
25952;SDS011;13750;50.804;8.764;2022-08-03T09:47:27;0.80;;;0.80;;
25952;SDS011;13750;50.804;8.764;2022-08-03T09:49:57;0.80;;;0.80;;
25952;SDS011;13750;50.804;8.764;2022-08-03T09:52:33;1.27;;;1.17;;
25952;SDS011;13750;50.804;8.764;2022-08-03T09:55:13;1.33;;;1.10;;
25952;SDS011;13750;50.804;8.764;2022-08-03T09:57:39;1.33;;;1.00;;
25952;SDS011;13750;50.804;8.764;2022-08-03T10:00:10;1.20;;;1.10;;
25952;SDS011;13750;50.804;8.764;2022-08-03T10:02:38;1.02;;;0.95;;
25952;SDS011;13750;50.804;8.764;2022-08-03T10:05:05;1.10;;;1.00;;
25952;SDS011;13750;50.804;8.764;2022-08-03T10:07:42;1.92;;;1.23;;
25952;SDS011;13750;50.804;8.764;2022-08-03T10:10:13;1.30;;;1.20;;
25952;SDS011;13750;50.804;8.764;2022-08-03T10:12:40;1.05;;;1.00;;
25952;SDS011;13750;50.804;8.764;2022-08-03T10:15:07;1.70;;;1.27;;
25952;SDS011;13750;50.804;8.764;2022-08-03T10:17:34;0.80;;;0.80;;
25952;SDS011;13750;50.804;8.764;2022-08-03T10:22:29;0.93;;;0.90;;
25952;SDS011;13750;50.804;8.764;2022-08-03T10:24:59;0.70;;;0.70;;
25952;SDS011;13750;50.804;8.764;2022-08-03T10:27:33;1.00;;;0.98;;
25952;SDS011;13750;50.804;8.764;2022-08-03T10:30:02;0.77;;;0.77;;
25952;SDS011;13750;50.804;8.764;2022-08-03T10:32:33;2.35;;;1.02;;
25952;SDS011;13750;50.804;8.764;2022-08-03T10:35:17;1.42;;;1.17;;
25952;SDS011;13750;50.804;8.764;2022-08-03T10:37:51;1.17;;;1.08;;
25952;SDS011;13750;50.804;8.764;2022-08-03T10:40:23;1.17;;;1.08;;
25952;SDS011;13750;50.804;8.764;2022-08-03T10:42:51;1.10;;;1.00;;
25952;SDS011;13750;50.804;8.764;2022-08-03T10:45:22;1.05;;;0.85;;
25952;SDS011;13750;50.804;8.764;2022-08-03T10:47:50;1.00;;;0.90;;
25952;SDS011;13750;50.804;8.764;2022-08-03T10:50:17;1.13;;;1.02;;
25952;SDS011;13750;50.804;8.764;2022-08-03T10:52:53;0.90;;;0.90;;
25952;SDS011;13750;50.804;8.764;2022-08-03T10:55:39;1.33;;;1.23;;
25952;SDS011;13750;50.804;8.764;2022-08-03T11:01:16;1.67;;;1.58;;
25952;SDS011;13750;50.804;8.764;2022-08-03T11:06:21;1.60;;;1.40;;
25952;SDS011;13750;50.804;8.764;2022-08-03T11:08:49;1.20;;;1.10;;
25952;SDS011;13750;50.804;8.764;2022-08-03T11:11:33;1.25;;;1.15;;
25952;SDS011;13750;50.804;8.764;2022-08-03T11:14:10;1.30;;;1.20;;
25952;SDS011;13750;50.804;8.764;2022-08-03T11:16:39;2.03;;;1.52;;
25952;SDS011;13750;50.804;8.764;2022-08-03T11:19:08;2.35;;;1.33;;
25952;SDS011;13750;50.804;8.764;2022-08-03T11:30:09;0.93;;;0.90;;
25952;SDS011;13750;50.804;8.764;2022-08-03T11:35:16;1.00;;;1.00;;
25952;SDS011;13750;50.804;8.764;2022-08-03T11:48:26;0.80;;;0.80;;
25952;SDS011;13750;50.804;8.764;2022-08-03T11:50:52;0.63;;;0.63;;
25952;SDS011;13750;50.804;8.764;2022-08-03T11:53:18;0.82;;;0.82;;
25952;SDS011;13750;50.804;8.764;2022-08-03T11:55:45;0.80;;;0.80;;
25952;SDS011;13750;50.804;8.764;2022-08-03T11:58:18;1.73;;;1.40;;
25952;SDS011;13750;50.804;8.764;2022-08-03T12:00:46;1.33;;;1.20;;
25952;SDS011;13750;50.804;8.764;2022-08-03T12:03:13;1.50;;;1.40;;
25952;SDS011;13750;50.804;8.764;2022-08-03T12:05:45;1.10;;;1.00;;
25952;SDS011;13750;50.804;8.764;2022-08-03T12:08:13;1.00;;;0.98;;
25952;SDS011;13750;50.804;8.764;2022-08-03T12:10:45;1.00;;;0.90;;
25952;SDS011;13750;50.804;8.764;2022-08-03T12:13:12;1.02;;;0.98;;
25952;SDS011;13750;50.804;8.764;2022-08-03T12:15:39;0.90;;;0.90;;
25952;SDS011;13750;50.804;8.764;2022-08-03T12:18:16;1.08;;;0.98;;
25952;SDS011;13750;50.804;8.764;2022-08-03T12:20:43;1.08;;;1.00;;
25952;SDS011;13750;50.804;8.764;2022-08-03T12:23:09;1.10;;;1.00;;
25952;SDS011;13750;50.804;8.764;2022-08-03T12:28:12;1.10;;;1.00;;
25952;SDS011;13750;50.804;8.764;2022-08-03T12:30:44;0.95;;;0.93;;
25952;SDS011;13750;50.804;8.764;2022-08-03T12:33:14;1.20;;;1.10;;
25952;SDS011;13750;50.804;8.764;2022-08-03T12:36:04;1.45;;;1.20;;
25952;SDS011;13750;50.804;8.764;2022-08-03T12:38:31;1.00;;;0.90;;
25952;SDS011;13750;50.804;8.764;2022-08-03T12:41:01;1.13;;;1.02;;
25952;SDS011;13750;50.804;8.764;2022-08-03T12:43:29;1.17;;;1.08;;
25952;SDS011;13750;50.804;8.764;2022-08-03T12:48:34;1.38;;;1.27;;
25952;SDS011;13750;50.804;8.764;2022-08-03T12:51:07;1.50;;;1.40;;
25952;SDS011;13750;50.804;8.764;2022-08-03T12:53:33;0.93;;;0.93;;
25952;SDS011;13750;50.804;8.764;2022-08-03T12:56:03;1.10;;;1.00;;
25952;SDS011;13750;50.804;8.764;2022-08-03T12:58:32;0.90;;;0.90;;
25952;SDS011;13750;50.804;8.764;2022-08-03T13:00:59;0.90;;;0.90;;
25952;SDS011;13750;50.804;8.764;2022-08-03T13:03:26;1.17;;;1.08;;
25952;SDS011;13750;50.804;8.764;2022-08-03T13:05:52;1.33;;;1.10;;
25952;SDS011;13750;50.804;8.764;2022-08-03T13:08:22;1.20;;;1.10;;
25952;SDS011;13750;50.804;8.764;2022-08-03T13:10:48;0.80;;;0.80;;
25952;SDS011;13750;50.804;8.764;2022-08-03T13:13:14;0.88;;;0.80;;
25952;SDS011;13750;50.804;8.764;2022-08-03T13:15:40;0.90;;;0.90;;
25952;SDS011;13750;50.804;8.764;2022-08-03T13:18:06;1.00;;;0.90;;
25952;SDS011;13750;50.804;8.764;2022-08-03T13:20:32;1.10;;;1.00;;
25952;SDS011;13750;50.804;8.764;2022-08-03T13:22:58;0.85;;;0.85;;
25952;SDS011;13750;50.804;8.764;2022-08-03T13:25:24;1.10;;;1.00;;
25952;SDS011;13750;50.804;8.764;2022-08-03T13:27:49;0.60;;;0.60;;
25952;SDS011;13750;50.804;8.764;2022-08-03T13:30:16;0.90;;;0.90;;
25952;SDS011;13750;50.804;8.764;2022-08-03T13:32:43;0.80;;;0.80;;
25952;SDS011;13750;50.804;8.764;2022-08-03T13:35:09;1.90;;;0.80;;
25952;SDS011;13750;50.804;8.764;2022-08-03T13:40:02;0.90;;;0.90;;
25952;SDS011;13750;50.804;8.764;2022-08-03T13:42:30;0.80;;;0.80;;
25952;SDS011;13750;50.804;8.764;2022-08-03T13:44:57;0.82;;;0.82;;
25952;SDS011;13750;50.804;8.764;2022-08-03T13:47:26;0.80;;;0.80;;
25952;SDS011;13750;50.804;8.764;2022-08-03T13:49:52;0.88;;;0.88;;
25952;SDS011;13750;50.804;8.764;2022-08-03T13:52:18;1.65;;;1.20;;
25952;SDS011;13750;50.804;8.764;2022-08-03T13:54:44;1.50;;;1.40;;
25952;SDS011;13750;50.804;8.764;2022-08-03T13:57:10;0.90;;;0.90;;
25952;SDS011;13750;50.804;8.764;2022-08-03T13:59:36;1.15;;;1.05;;
25952;SDS011;13750;50.804;8.764;2022-08-03T14:02:02;0.75;;;0.70;;
25952;SDS011;13750;50.804;8.764;2022-08-03T14:04:28;1.40;;;1.30;;
25952;SDS011;13750;50.804;8.764;2022-08-03T14:06:54;1.50;;;1.40;;
25952;SDS011;13750;50.804;8.764;2022-08-03T14:09:20;1.65;;;1.55;;
25952;SDS011;13750;50.804;8.764;2022-08-03T14:11:46;1.95;;;1.65;;
25952;SDS011;13750;50.804;8.764;2022-08-03T14:14:11;1.00;;;1.00;;
25952;SDS011;13750;50.804;8.764;2022-08-03T14:16:37;1.17;;;1.08;;
25952;SDS011;13750;50.804;8.764;2022-08-03T14:19:03;1.10;;;1.00;;
25952;SDS011;13750;50.804;8.764;2022-08-03T14:21:29;1.13;;;1.02;;
25952;SDS011;13750;50.804;8.764;2022-08-03T14:23:55;1.45;;;0.80;;
25952;SDS011;13750;50.804;8.764;2022-08-03T14:26:21;1.00;;;0.90;;
25952;SDS011;13750;50.804;8.764;2022-08-03T14:28:46;0.88;;;0.88;;
25952;SDS011;13750;50.804;8.764;2022-08-03T14:31:12;0.88;;;0.70;;
25952;SDS011;13750;50.804;8.764;2022-08-03T14:33:38;0.80;;;0.80;;
25952;SDS011;13750;50.804;8.764;2022-08-03T14:36:04;1.13;;;1.02;;
25952;SDS011;13750;50.804;8.764;2022-08-03T14:38:30;1.55;;;1.45;;
25952;SDS011;13750;50.804;8.764;2022-08-03T14:40:56;1.60;;;1.17;;
25952;SDS011;13750;50.804;8.764;2022-08-03T14:43:21;0.95;;;0.90;;
25952;SDS011;13750;50.804;8.764;2022-08-03T14:45:47;1.42;;;1.20;;
25952;SDS011;13750;50.804;8.764;2022-08-03T14:48:16;0.80;;;0.80;;
25952;SDS011;13750;50.804;8.764;2022-08-03T14:50:42;0.80;;;0.80;;
25952;SDS011;13750;50.804;8.764;2022-08-03T14:53:08;1.10;;;1.00;;
25952;SDS011;13750;50.804;8.764;2022-08-03T14:55:33;0.90;;;0.90;;
25952;SDS011;13750;50.804;8.764;2022-08-03T14:57:59;1.15;;;1.05;;
25952;SDS011;13750;50.804;8.764;2022-08-03T15:00:29;1.00;;;0.90;;
25952;SDS011;13750;50.804;8.764;2022-08-03T15:02:58;0.80;;;0.80;;
25952;SDS011;13750;50.804;8.764;2022-08-03T15:05:24;0.80;;;0.80;;
25952;SDS011;13750;50.804;8.764;2022-08-03T15:07:50;0.80;;;0.80;;
25952;SDS011;13750;50.804;8.764;2022-08-03T15:10:15;0.80;;;0.80;;
25952;SDS011;13750;50.804;8.764;2022-08-03T15:12:41;0.98;;;0.98;;
25952;SDS011;13750;50.804;8.764;2022-08-03T15:15:07;0.77;;;0.77;;
25952;SDS011;13750;50.804;8.764;2022-08-03T15:17:33;0.90;;;0.90;;
25952;SDS011;13750;50.804;8.764;2022-08-03T15:19:58;0.90;;;0.85;;
25952;SDS011;13750;50.804;8.764;2022-08-03T15:22:24;0.93;;;0.93;;
25952;SDS011;13750;50.804;8.764;2022-08-03T15:24:49;1.10;;;1.00;;
25952;SDS011;13750;50.804;8.764;2022-08-03T15:27:15;0.70;;;0.70;;
25952;SDS011;13750;50.804;8.764;2022-08-03T15:29:41;0.77;;;0.70;;
25952;SDS011;13750;50.804;8.764;2022-08-03T15:32:06;1.00;;;0.82;;
25952;SDS011;13750;50.804;8.764;2022-08-03T15:34:32;0.90;;;0.90;;
25952;SDS011;13750;50.804;8.764;2022-08-03T15:36:58;0.98;;;0.98;;
25952;SDS011;13750;50.804;8.764;2022-08-03T15:39:23;0.80;;;0.80;;
25952;SDS011;13750;50.804;8.764;2022-08-03T15:41:49;0.80;;;0.80;;
25952;SDS011;13750;50.804;8.764;2022-08-03T15:44:18;0.90;;;0.90;;
25952;SDS011;13750;50.804;8.764;2022-08-03T15:46:44;1.08;;;1.00;;
25952;SDS011;13750;50.804;8.764;2022-08-03T15:49:10;0.80;;;0.80;;
25952;SDS011;13750;50.804;8.764;2022-08-03T15:51:36;0.75;;;0.75;;
25952;SDS011;13750;50.804;8.764;2022-08-03T15:54:02;0.82;;;0.82;;